sensor_id;sensor_type;location;lat;lon;timestamp;P1;durP1;ratioP1;P2;durP2;ratioP2
8592;SDS011;4334;49.982;8.398;2022-11-20T00:01:06;30.07;;;15.90;;
8592;SDS011;4334;49.982;8.398;2022-11-20T00:03:34;26.43;;;16.00;;
8592;SDS011;4334;49.982;8.398;2022-11-20T00:06:02;30.87;;;16.60;;
8592;SDS011;4334;49.982;8.398;2022-11-20T00:08:33;26.90;;;15.67;;
8592;SDS011;4334;49.982;8.398;2022-11-20T00:11:02;29.23;;;15.57;;
8592;SDS011;4334;49.982;8.398;2022-11-20T00:13:30;29.23;;;16.87;;
8592;SDS011;4334;49.982;8.398;2022-11-20T00:15:57;29.83;;;17.20;;
8592;SDS011;4334;49.982;8.398;2022-11-20T00:18:25;27.37;;;16.30;;
8592;SDS011;4334;49.982;8.398;2022-11-20T00:20:53;27.90;;;16.53;;
8592;SDS011;4334;49.982;8.398;2022-11-20T00:23:20;28.80;;;16.50;;
8592;SDS011;4334;49.982;8.398;2022-11-20T00:25:48;30.60;;;17.00;;
8592;SDS011;4334;49.982;8.398;2022-11-20T00:28:15;32.23;;;16.97;;
8592;SDS011;4334;49.982;8.398;2022-11-20T00:30:42;33.27;;;17.47;;
8592;SDS011;4334;49.982;8.398;2022-11-20T00:33:09;30.87;;;16.40;;
8592;SDS011;4334;49.982;8.398;2022-11-20T00:35:36;31.23;;;17.10;;
8592;SDS011;4334;49.982;8.398;2022-11-20T00:38:04;31.80;;;16.90;;
8592;SDS011;4334;49.982;8.398;2022-11-20T00:40:31;31.73;;;17.40;;
8592;SDS011;4334;49.982;8.398;2022-11-20T00:43:01;30.10;;;16.57;;
8592;SDS011;4334;49.982;8.398;2022-11-20T00:45:28;31.83;;;17.27;;
8592;SDS011;4334;49.982;8.398;2022-11-20T00:47:55;32.23;;;17.37;;
8592;SDS011;4334;49.982;8.398;2022-11-20T00:50:22;36.00;;;18.30;;
8592;SDS011;4334;49.982;8.398;2022-11-20T00:52:49;33.50;;;16.93;;
8592;SDS011;4334;49.982;8.398;2022-11-20T00:55:16;35.73;;;17.37;;
8592;SDS011;4334;49.982;8.398;2022-11-20T00:57:43;33.40;;;17.80;;
8592;SDS011;4334;49.982;8.398;2022-11-20T01:00:12;31.17;;;16.47;;
8592;SDS011;4334;49.982;8.398;2022-11-20T01:02:39;31.17;;;17.17;;
8592;SDS011;4334;49.982;8.398;2022-11-20T01:05:07;32.83;;;17.77;;
8592;SDS011;4334;49.982;8.398;2022-11-20T01:07:34;33.67;;;17.90;;
8592;SDS011;4334;49.982;8.398;2022-11-20T01:10:01;33.73;;;16.20;;
8592;SDS011;4334;49.982;8.398;2022-11-20T01:12:28;32.90;;;17.37;;
8592;SDS011;4334;49.982;8.398;2022-11-20T01:14:55;34.20;;;17.17;;
8592;SDS011;4334;49.982;8.398;2022-11-20T01:17:23;31.77;;;17.50;;
8592;SDS011;4334;49.982;8.398;2022-11-20T01:19:50;31.97;;;17.90;;
8592;SDS011;4334;49.982;8.398;2022-11-20T01:22:17;30.37;;;16.77;;
8592;SDS011;4334;49.982;8.398;2022-11-20T01:24:44;32.13;;;17.40;;
8592;SDS011;4334;49.982;8.398;2022-11-20T01:27:11;33.40;;;17.73;;
8592;SDS011;4334;49.982;8.398;2022-11-20T01:29:37;33.47;;;17.17;;
8592;SDS011;4334;49.982;8.398;2022-11-20T01:32:04;32.47;;;17.53;;
8592;SDS011;4334;49.982;8.398;2022-11-20T01:34:33;31.13;;;16.83;;
8592;SDS011;4334;49.982;8.398;2022-11-20T01:37:00;34.03;;;18.20;;
8592;SDS011;4334;49.982;8.398;2022-11-20T01:39:26;33.93;;;17.53;;
8592;SDS011;4334;49.982;8.398;2022-11-20T01:41:54;32.50;;;17.93;;
8592;SDS011;4334;49.982;8.398;2022-11-20T01:44:42;34.70;;;16.90;;
8592;SDS011;4334;49.982;8.398;2022-11-20T01:47:14;34.17;;;18.73;;
8592;SDS011;4334;49.982;8.398;2022-11-20T01:49:46;36.77;;;19.90;;
8592;SDS011;4334;49.982;8.398;2022-11-20T01:52:17;39.47;;;19.13;;
8592;SDS011;4334;49.982;8.398;2022-11-20T01:54:46;34.87;;;18.23;;
8592;SDS011;4334;49.982;8.398;2022-11-20T01:57:18;35.67;;;18.27;;
8592;SDS011;4334;49.982;8.398;2022-11-20T01:59:48;37.90;;;19.23;;
8592;SDS011;4334;49.982;8.398;2022-11-20T02:02:19;35.53;;;18.63;;
8592;SDS011;4334;49.982;8.398;2022-11-20T02:04:47;35.13;;;18.37;;
8592;SDS011;4334;49.982;8.398;2022-11-20T02:07:17;36.60;;;17.83;;
8592;SDS011;4334;49.982;8.398;2022-11-20T02:09:46;38.97;;;19.93;;
8592;SDS011;4334;49.982;8.398;2022-11-20T02:12:13;39.87;;;19.10;;
8592;SDS011;4334;49.982;8.398;2022-11-20T02:14:54;34.07;;;17.97;;
8592;SDS011;4334;49.982;8.398;2022-11-20T02:17:21;40.93;;;19.30;;
8592;SDS011;4334;49.982;8.398;2022-11-20T02:19:49;40.07;;;20.30;;
8592;SDS011;4334;49.982;8.398;2022-11-20T02:22:17;35.33;;;18.20;;
8592;SDS011;4334;49.982;8.398;2022-11-20T02:24:50;40.73;;;18.57;;
8592;SDS011;4334;49.982;8.398;2022-11-20T02:27:17;36.53;;;19.03;;
8592;SDS011;4334;49.982;8.398;2022-11-20T02:29:45;42.40;;;19.73;;
8592;SDS011;4334;49.982;8.398;2022-11-20T02:32:18;39.67;;;19.77;;
8592;SDS011;4334;49.982;8.398;2022-11-20T02:34:46;38.83;;;18.90;;
8592;SDS011;4334;49.982;8.398;2022-11-20T02:37:13;41.37;;;19.70;;
8592;SDS011;4334;49.982;8.398;2022-11-20T02:39:40;41.50;;;19.93;;
8592;SDS011;4334;49.982;8.398;2022-11-20T02:42:10;43.43;;;19.90;;
8592;SDS011;4334;49.982;8.398;2022-11-20T02:44:37;41.07;;;20.73;;
8592;SDS011;4334;49.982;8.398;2022-11-20T02:47:04;42.63;;;18.67;;
8592;SDS011;4334;49.982;8.398;2022-11-20T02:49:31;43.53;;;20.43;;
8592;SDS011;4334;49.982;8.398;2022-11-20T02:51:58;43.07;;;21.17;;
8592;SDS011;4334;49.982;8.398;2022-11-20T02:54:25;39.70;;;19.60;;
8592;SDS011;4334;49.982;8.398;2022-11-20T02:56:52;40.47;;;19.93;;
8592;SDS011;4334;49.982;8.398;2022-11-20T02:59:20;42.80;;;20.73;;
8592;SDS011;4334;49.982;8.398;2022-11-20T03:01:47;42.63;;;20.10;;
8592;SDS011;4334;49.982;8.398;2022-11-20T03:04:14;45.47;;;20.30;;
8592;SDS011;4334;49.982;8.398;2022-11-20T03:06:40;42.83;;;20.50;;
8592;SDS011;4334;49.982;8.398;2022-11-20T03:09:07;44.00;;;20.03;;
8592;SDS011;4334;49.982;8.398;2022-11-20T03:11:34;42.60;;;20.83;;
8592;SDS011;4334;49.982;8.398;2022-11-20T03:14:01;43.00;;;20.00;;
8592;SDS011;4334;49.982;8.398;2022-11-20T03:16:30;39.73;;;19.33;;
8592;SDS011;4334;49.982;8.398;2022-11-20T03:18:57;40.60;;;19.93;;
8592;SDS011;4334;49.982;8.398;2022-11-20T03:21:24;41.53;;;19.87;;
8592;SDS011;4334;49.982;8.398;2022-11-20T03:23:52;42.67;;;19.83;;
8592;SDS011;4334;49.982;8.398;2022-11-20T03:26:20;39.70;;;19.57;;
8592;SDS011;4334;49.982;8.398;2022-11-20T03:28:49;46.40;;;20.20;;
8592;SDS011;4334;49.982;8.398;2022-11-20T03:31:18;39.03;;;19.00;;
8592;SDS011;4334;49.982;8.398;2022-11-20T03:33:48;44.17;;;19.80;;
8592;SDS011;4334;49.982;8.398;2022-11-20T03:36:15;43.07;;;20.30;;
8592;SDS011;4334;49.982;8.398;2022-11-20T03:38:43;40.00;;;19.33;;
8592;SDS011;4334;49.982;8.398;2022-11-20T03:41:12;41.87;;;19.73;;
8592;SDS011;4334;49.982;8.398;2022-11-20T03:43:41;45.33;;;20.97;;
8592;SDS011;4334;49.982;8.398;2022-11-20T03:46:08;43.77;;;20.10;;
8592;SDS011;4334;49.982;8.398;2022-11-20T03:48:35;42.90;;;19.73;;
8592;SDS011;4334;49.982;8.398;2022-11-20T03:51:10;44.07;;;20.07;;
8592;SDS011;4334;49.982;8.398;2022-11-20T03:53:38;43.13;;;19.83;;
8592;SDS011;4334;49.982;8.398;2022-11-20T03:56:06;44.60;;;19.40;;
8592;SDS011;4334;49.982;8.398;2022-11-20T03:58:33;44.37;;;21.30;;
8592;SDS011;4334;49.982;8.398;2022-11-20T04:01:05;46.13;;;21.03;;
8592;SDS011;4334;49.982;8.398;2022-11-20T04:03:33;44.97;;;20.33;;
8592;SDS011;4334;49.982;8.398;2022-11-20T04:06:01;40.77;;;19.70;;
8592;SDS011;4334;49.982;8.398;2022-11-20T04:08:30;49.30;;;20.40;;
8592;SDS011;4334;49.982;8.398;2022-11-20T04:11:07;45.77;;;20.77;;
8592;SDS011;4334;49.982;8.398;2022-11-20T04:13:35;45.77;;;21.13;;
8592;SDS011;4334;49.982;8.398;2022-11-20T04:16:02;46.87;;;21.10;;
8592;SDS011;4334;49.982;8.398;2022-11-20T04:18:29;46.60;;;20.57;;
8592;SDS011;4334;49.982;8.398;2022-11-20T04:20:56;46.60;;;21.33;;
8592;SDS011;4334;49.982;8.398;2022-11-20T04:23:23;42.63;;;19.60;;
8592;SDS011;4334;49.982;8.398;2022-11-20T04:25:51;45.53;;;20.87;;
8592;SDS011;4334;49.982;8.398;2022-11-20T04:28:18;48.13;;;20.73;;
8592;SDS011;4334;49.982;8.398;2022-11-20T04:30:45;47.20;;;21.57;;
8592;SDS011;4334;49.982;8.398;2022-11-20T04:33:12;44.43;;;20.90;;
8592;SDS011;4334;49.982;8.398;2022-11-20T04:35:39;50.13;;;22.30;;
8592;SDS011;4334;49.982;8.398;2022-11-20T04:38:06;42.80;;;20.47;;
8592;SDS011;4334;49.982;8.398;2022-11-20T04:40:33;49.43;;;21.30;;
8592;SDS011;4334;49.982;8.398;2022-11-20T04:43:01;48.97;;;21.60;;
8592;SDS011;4334;49.982;8.398;2022-11-20T04:45:28;43.33;;;20.13;;
8592;SDS011;4334;49.982;8.398;2022-11-20T04:47:54;41.43;;;19.43;;
8592;SDS011;4334;49.982;8.398;2022-11-20T04:50:21;43.07;;;19.47;;
8592;SDS011;4334;49.982;8.398;2022-11-20T04:52:48;42.70;;;19.97;;
8592;SDS011;4334;49.982;8.398;2022-11-20T04:55:15;43.97;;;20.87;;
8592;SDS011;4334;49.982;8.398;2022-11-20T04:57:41;41.33;;;20.33;;
8592;SDS011;4334;49.982;8.398;2022-11-20T05:00:10;45.43;;;19.70;;
8592;SDS011;4334;49.982;8.398;2022-11-20T05:02:38;40.30;;;20.07;;
8592;SDS011;4334;49.982;8.398;2022-11-20T05:05:04;45.90;;;19.73;;
8592;SDS011;4334;49.982;8.398;2022-11-20T05:07:31;40.43;;;19.07;;
8592;SDS011;4334;49.982;8.398;2022-11-20T05:09:58;41.37;;;20.27;;
8592;SDS011;4334;49.982;8.398;2022-11-20T05:12:25;47.27;;;21.07;;
8592;SDS011;4334;49.982;8.398;2022-11-20T05:14:53;48.20;;;20.70;;
8592;SDS011;4334;49.982;8.398;2022-11-20T05:17:21;48.60;;;20.30;;
8592;SDS011;4334;49.982;8.398;2022-11-20T05:19:47;46.10;;;20.67;;
8592;SDS011;4334;49.982;8.398;2022-11-20T05:22:14;50.47;;;20.50;;
8592;SDS011;4334;49.982;8.398;2022-11-20T05:24:41;49.47;;;20.83;;
8592;SDS011;4334;49.982;8.398;2022-11-20T05:27:08;46.80;;;20.43;;
8592;SDS011;4334;49.982;8.398;2022-11-20T05:29:35;46.90;;;20.80;;
8592;SDS011;4334;49.982;8.398;2022-11-20T05:32:01;45.57;;;20.63;;
8592;SDS011;4334;49.982;8.398;2022-11-20T05:34:29;44.77;;;20.57;;
8592;SDS011;4334;49.982;8.398;2022-11-20T05:36:56;45.83;;;19.67;;
8592;SDS011;4334;49.982;8.398;2022-11-20T05:39:23;41.97;;;19.37;;
8592;SDS011;4334;49.982;8.398;2022-11-20T05:41:50;45.40;;;20.00;;
8592;SDS011;4334;49.982;8.398;2022-11-20T05:44:36;46.63;;;20.70;;
8592;SDS011;4334;49.982;8.398;2022-11-20T05:47:03;44.00;;;20.83;;
8592;SDS011;4334;49.982;8.398;2022-11-20T05:49:32;52.73;;;21.13;;
8592;SDS011;4334;49.982;8.398;2022-11-20T05:51:59;48.13;;;20.70;;
8592;SDS011;4334;49.982;8.398;2022-11-20T05:54:25;44.93;;;20.20;;
8592;SDS011;4334;49.982;8.398;2022-11-20T05:56:52;52.57;;;21.80;;
8592;SDS011;4334;49.982;8.398;2022-11-20T05:59:19;44.57;;;19.97;;
8592;SDS011;4334;49.982;8.398;2022-11-20T06:01:46;54.87;;;20.90;;
8592;SDS011;4334;49.982;8.398;2022-11-20T06:04:12;47.57;;;20.70;;
8592;SDS011;4334;49.982;8.398;2022-11-20T06:06:40;47.73;;;20.17;;
8592;SDS011;4334;49.982;8.398;2022-11-20T06:09:07;45.53;;;21.53;;
8592;SDS011;4334;49.982;8.398;2022-11-20T06:11:34;49.30;;;21.23;;
8592;SDS011;4334;49.982;8.398;2022-11-20T06:14:01;45.30;;;20.07;;
8592;SDS011;4334;49.982;8.398;2022-11-20T06:16:27;48.60;;;21.53;;
8592;SDS011;4334;49.982;8.398;2022-11-20T06:18:54;46.77;;;20.80;;
8592;SDS011;4334;49.982;8.398;2022-11-20T06:21:23;45.50;;;20.73;;
8592;SDS011;4334;49.982;8.398;2022-11-20T06:23:52;47.77;;;21.40;;
8592;SDS011;4334;49.982;8.398;2022-11-20T06:26:20;52.20;;;22.30;;
8592;SDS011;4334;49.982;8.398;2022-11-20T06:28:48;47.93;;;19.60;;
8592;SDS011;4334;49.982;8.398;2022-11-20T06:31:16;44.73;;;21.27;;
8592;SDS011;4334;49.982;8.398;2022-11-20T06:33:44;44.57;;;19.40;;
8592;SDS011;4334;49.982;8.398;2022-11-20T06:36:12;47.47;;;20.60;;
8592;SDS011;4334;49.982;8.398;2022-11-20T06:38:40;49.10;;;21.30;;
8592;SDS011;4334;49.982;8.398;2022-11-20T06:41:10;48.60;;;20.57;;
8592;SDS011;4334;49.982;8.398;2022-11-20T06:43:38;49.03;;;20.17;;
8592;SDS011;4334;49.982;8.398;2022-11-20T06:46:05;45.27;;;19.90;;
8592;SDS011;4334;49.982;8.398;2022-11-20T06:48:32;48.47;;;21.63;;
8592;SDS011;4334;49.982;8.398;2022-11-20T06:50:59;49.60;;;21.43;;
8592;SDS011;4334;49.982;8.398;2022-11-20T06:53:25;49.20;;;20.03;;
8592;SDS011;4334;49.982;8.398;2022-11-20T06:55:52;49.10;;;21.43;;
8592;SDS011;4334;49.982;8.398;2022-11-20T06:58:25;48.07;;;21.03;;
8592;SDS011;4334;49.982;8.398;2022-11-20T07:00:53;47.77;;;20.87;;
8592;SDS011;4334;49.982;8.398;2022-11-20T07:03:20;49.27;;;21.50;;
8592;SDS011;4334;49.982;8.398;2022-11-20T07:05:47;50.30;;;21.83;;
8592;SDS011;4334;49.982;8.398;2022-11-20T07:08:14;47.27;;;20.30;;
8592;SDS011;4334;49.982;8.398;2022-11-20T07:10:40;50.57;;;21.73;;
8592;SDS011;4334;49.982;8.398;2022-11-20T07:13:07;53.10;;;21.30;;
8592;SDS011;4334;49.982;8.398;2022-11-20T07:15:36;48.40;;;21.90;;
8592;SDS011;4334;49.982;8.398;2022-11-20T07:18:02;48.53;;;20.30;;
8592;SDS011;4334;49.982;8.398;2022-11-20T07:20:29;54.90;;;22.57;;
8592;SDS011;4334;49.982;8.398;2022-11-20T07:22:56;53.47;;;22.33;;
8592;SDS011;4334;49.982;8.398;2022-11-20T07:25:24;47.43;;;20.43;;
8592;SDS011;4334;49.982;8.398;2022-11-20T07:27:52;47.20;;;21.10;;
8592;SDS011;4334;49.982;8.398;2022-11-20T07:30:22;46.13;;;19.97;;
8592;SDS011;4334;49.982;8.398;2022-11-20T07:32:51;44.33;;;21.13;;
8592;SDS011;4334;49.982;8.398;2022-11-20T07:35:20;49.20;;;20.80;;
8592;SDS011;4334;49.982;8.398;2022-11-20T07:37:47;51.97;;;22.67;;
8592;SDS011;4334;49.982;8.398;2022-11-20T07:40:14;51.57;;;21.10;;
8592;SDS011;4334;49.982;8.398;2022-11-20T07:42:46;50.37;;;22.57;;
8592;SDS011;4334;49.982;8.398;2022-11-20T07:45:14;47.23;;;20.63;;
8592;SDS011;4334;49.982;8.398;2022-11-20T07:47:40;46.07;;;20.90;;
8592;SDS011;4334;49.982;8.398;2022-11-20T07:50:09;48.53;;;20.23;;
8592;SDS011;4334;49.982;8.398;2022-11-20T07:52:36;56.13;;;22.87;;
8592;SDS011;4334;49.982;8.398;2022-11-20T07:55:03;51.03;;;21.70;;
8592;SDS011;4334;49.982;8.398;2022-11-20T07:57:31;50.97;;;20.90;;
8592;SDS011;4334;49.982;8.398;2022-11-20T07:59:58;50.37;;;21.13;;
8592;SDS011;4334;49.982;8.398;2022-11-20T08:02:25;52.27;;;21.37;;
8592;SDS011;4334;49.982;8.398;2022-11-20T08:04:51;48.67;;;21.40;;
8592;SDS011;4334;49.982;8.398;2022-11-20T08:07:19;52.43;;;21.80;;
8592;SDS011;4334;49.982;8.398;2022-11-20T08:09:46;48.77;;;20.63;;
8592;SDS011;4334;49.982;8.398;2022-11-20T08:12:16;49.93;;;21.70;;
8592;SDS011;4334;49.982;8.398;2022-11-20T08:15:02;52.40;;;21.03;;
8592;SDS011;4334;49.982;8.398;2022-11-20T08:17:29;48.53;;;21.50;;
8592;SDS011;4334;49.982;8.398;2022-11-20T08:19:56;51.67;;;21.70;;
8592;SDS011;4334;49.982;8.398;2022-11-20T08:22:24;48.17;;;20.47;;
8592;SDS011;4334;49.982;8.398;2022-11-20T08:24:51;43.80;;;20.77;;
8592;SDS011;4334;49.982;8.398;2022-11-20T08:27:18;47.63;;;20.63;;
8592;SDS011;4334;49.982;8.398;2022-11-20T08:29:45;43.73;;;19.87;;
8592;SDS011;4334;49.982;8.398;2022-11-20T08:32:11;47.70;;;19.97;;
8592;SDS011;4334;49.982;8.398;2022-11-20T08:34:38;43.33;;;20.67;;
8592;SDS011;4334;49.982;8.398;2022-11-20T08:37:06;45.07;;;20.30;;
8592;SDS011;4334;49.982;8.398;2022-11-20T08:39:34;45.17;;;20.17;;
8592;SDS011;4334;49.982;8.398;2022-11-20T08:42:00;43.17;;;19.60;;
8592;SDS011;4334;49.982;8.398;2022-11-20T08:44:27;38.90;;;18.77;;
8592;SDS011;4334;49.982;8.398;2022-11-20T08:46:54;40.57;;;18.50;;
8592;SDS011;4334;49.982;8.398;2022-11-20T08:49:21;37.13;;;18.27;;
8592;SDS011;4334;49.982;8.398;2022-11-20T08:51:47;38.03;;;19.13;;
8592;SDS011;4334;49.982;8.398;2022-11-20T08:54:17;38.30;;;18.30;;
8592;SDS011;4334;49.982;8.398;2022-11-20T08:56:46;34.20;;;17.53;;
8592;SDS011;4334;49.982;8.398;2022-11-20T08:59:13;36.23;;;17.40;;
8592;SDS011;4334;49.982;8.398;2022-11-20T09:01:39;35.43;;;17.93;;
8592;SDS011;4334;49.982;8.398;2022-11-20T09:04:06;34.23;;;17.60;;
8592;SDS011;4334;49.982;8.398;2022-11-20T09:06:33;29.80;;;16.80;;
8592;SDS011;4334;49.982;8.398;2022-11-20T09:09:00;33.73;;;17.13;;
8592;SDS011;4334;49.982;8.398;2022-11-20T09:11:26;33.67;;;17.73;;
8592;SDS011;4334;49.982;8.398;2022-11-20T09:13:55;31.93;;;16.40;;
8592;SDS011;4334;49.982;8.398;2022-11-20T09:16:21;32.73;;;17.47;;
8592;SDS011;4334;49.982;8.398;2022-11-20T09:18:49;34.53;;;17.67;;
8592;SDS011;4334;49.982;8.398;2022-11-20T09:21:16;32.10;;;17.60;;
8592;SDS011;4334;49.982;8.398;2022-11-20T09:23:43;32.20;;;16.80;;
8592;SDS011;4334;49.982;8.398;2022-11-20T09:26:11;30.97;;;17.00;;
8592;SDS011;4334;49.982;8.398;2022-11-20T09:28:39;34.17;;;17.47;;
8592;SDS011;4334;49.982;8.398;2022-11-20T09:31:07;31.67;;;17.07;;
8592;SDS011;4334;49.982;8.398;2022-11-20T09:33:35;28.57;;;16.07;;
8592;SDS011;4334;49.982;8.398;2022-11-20T09:36:02;30.13;;;16.83;;
8592;SDS011;4334;49.982;8.398;2022-11-20T09:38:29;33.73;;;18.50;;
8592;SDS011;4334;49.982;8.398;2022-11-20T09:40:57;34.13;;;17.77;;
8592;SDS011;4334;49.982;8.398;2022-11-20T09:43:32;28.03;;;16.33;;
8592;SDS011;4334;49.982;8.398;2022-11-20T09:46:13;30.07;;;16.73;;
8592;SDS011;4334;49.982;8.398;2022-11-20T09:48:59;30.23;;;16.43;;
8592;SDS011;4334;49.982;8.398;2022-11-20T09:51:43;32.13;;;16.97;;
8592;SDS011;4334;49.982;8.398;2022-11-20T09:54:16;33.93;;;18.27;;
8592;SDS011;4334;49.982;8.398;2022-11-20T09:56:45;30.97;;;17.23;;
8592;SDS011;4334;49.982;8.398;2022-11-20T09:59:23;29.33;;;16.83;;
8592;SDS011;4334;49.982;8.398;2022-11-20T10:02:00;28.07;;;16.77;;
8592;SDS011;4334;49.982;8.398;2022-11-20T10:04:29;27.80;;;16.73;;
8592;SDS011;4334;49.982;8.398;2022-11-20T10:07:00;30.87;;;18.03;;
8592;SDS011;4334;49.982;8.398;2022-11-20T10:09:33;29.27;;;16.87;;
8592;SDS011;4334;49.982;8.398;2022-11-20T10:12:06;29.57;;;17.20;;
8592;SDS011;4334;49.982;8.398;2022-11-20T10:14:42;29.70;;;17.27;;
8592;SDS011;4334;49.982;8.398;2022-11-20T10:17:27;28.13;;;16.67;;
8592;SDS011;4334;49.982;8.398;2022-11-20T10:20:08;32.70;;;17.27;;
8592;SDS011;4334;49.982;8.398;2022-11-20T10:22:46;33.63;;;17.97;;
8592;SDS011;4334;49.982;8.398;2022-11-20T10:25:22;27.47;;;16.57;;
8592;SDS011;4334;49.982;8.398;2022-11-20T10:28:05;29.30;;;15.63;;
8592;SDS011;4334;49.982;8.398;2022-11-20T10:30:43;27.13;;;16.50;;
8592;SDS011;4334;49.982;8.398;2022-11-20T10:33:15;27.93;;;16.30;;
8592;SDS011;4334;49.982;8.398;2022-11-20T10:35:45;29.40;;;17.40;;
8592;SDS011;4334;49.982;8.398;2022-11-20T10:38:19;30.23;;;16.60;;
8592;SDS011;4334;49.982;8.398;2022-11-20T10:40:51;29.03;;;16.47;;
8592;SDS011;4334;49.982;8.398;2022-11-20T10:43:41;26.90;;;16.20;;
8592;SDS011;4334;49.982;8.398;2022-11-20T10:46:10;29.60;;;16.50;;
8592;SDS011;4334;49.982;8.398;2022-11-20T10:48:44;29.77;;;16.57;;
8592;SDS011;4334;49.982;8.398;2022-11-20T10:51:13;29.17;;;16.00;;
8592;SDS011;4334;49.982;8.398;2022-11-20T10:53:51;33.17;;;17.43;;
8592;SDS011;4334;49.982;8.398;2022-11-20T10:56:25;34.80;;;18.20;;
8592;SDS011;4334;49.982;8.398;2022-11-20T10:59:03;27.90;;;16.57;;
8592;SDS011;4334;49.982;8.398;2022-11-20T11:01:42;28.83;;;16.73;;
8592;SDS011;4334;49.982;8.398;2022-11-20T11:04:17;31.43;;;17.30;;
8592;SDS011;4334;49.982;8.398;2022-11-20T11:06:56;34.70;;;17.30;;
8592;SDS011;4334;49.982;8.398;2022-11-20T11:09:32;31.30;;;16.83;;
8592;SDS011;4334;49.982;8.398;2022-11-20T11:12:06;28.07;;;16.23;;
8592;SDS011;4334;49.982;8.398;2022-11-20T11:14:41;30.93;;;17.57;;
8592;SDS011;4334;49.982;8.398;2022-11-20T11:17:18;25.37;;;16.27;;
8592;SDS011;4334;49.982;8.398;2022-11-20T11:19:57;28.20;;;16.60;;
8592;SDS011;4334;49.982;8.398;2022-11-20T11:22:43;27.50;;;16.83;;
8592;SDS011;4334;49.982;8.398;2022-11-20T11:25:20;27.73;;;16.50;;
8592;SDS011;4334;49.982;8.398;2022-11-20T11:27:48;28.50;;;17.13;;
8592;SDS011;4334;49.982;8.398;2022-11-20T11:30:17;25.93;;;16.30;;
8592;SDS011;4334;49.982;8.398;2022-11-20T11:32:46;28.80;;;16.30;;
8592;SDS011;4334;49.982;8.398;2022-11-20T11:35:22;26.97;;;16.77;;
8592;SDS011;4334;49.982;8.398;2022-11-20T11:37:51;26.00;;;16.53;;
8592;SDS011;4334;49.982;8.398;2022-11-20T11:40:20;27.90;;;15.60;;
8592;SDS011;4334;49.982;8.398;2022-11-20T11:42:53;27.87;;;15.93;;
8592;SDS011;4334;49.982;8.398;2022-11-20T11:45:23;25.00;;;14.60;;
8592;SDS011;4334;49.982;8.398;2022-11-20T11:47:50;23.40;;;14.70;;
8592;SDS011;4334;49.982;8.398;2022-11-20T11:50:21;25.10;;;15.93;;
8592;SDS011;4334;49.982;8.398;2022-11-20T11:52:55;25.70;;;15.00;;
8592;SDS011;4334;49.982;8.398;2022-11-20T11:55:29;27.03;;;15.77;;
8592;SDS011;4334;49.982;8.398;2022-11-20T11:58:02;24.10;;;14.20;;
8592;SDS011;4334;49.982;8.398;2022-11-20T12:00:38;20.73;;;13.27;;
8592;SDS011;4334;49.982;8.398;2022-11-20T12:03:09;19.50;;;12.93;;
8592;SDS011;4334;49.982;8.398;2022-11-20T12:05:44;19.87;;;13.30;;
8592;SDS011;4334;49.982;8.398;2022-11-20T12:08:15;19.10;;;12.63;;
8592;SDS011;4334;49.982;8.398;2022-11-20T12:10:47;21.27;;;14.20;;
8592;SDS011;4334;49.982;8.398;2022-11-20T12:13:20;26.10;;;17.60;;
8592;SDS011;4334;49.982;8.398;2022-11-20T12:15:54;21.77;;;13.73;;
8592;SDS011;4334;49.982;8.398;2022-11-20T12:18:21;23.13;;;15.73;;
8592;SDS011;4334;49.982;8.398;2022-11-20T12:20:54;20.57;;;14.20;;
8592;SDS011;4334;49.982;8.398;2022-11-20T12:23:31;18.27;;;12.03;;
8592;SDS011;4334;49.982;8.398;2022-11-20T12:26:08;16.57;;;11.77;;
8592;SDS011;4334;49.982;8.398;2022-11-20T12:28:44;20.50;;;14.53;;
8592;SDS011;4334;49.982;8.398;2022-11-20T12:31:31;20.00;;;13.90;;
8592;SDS011;4334;49.982;8.398;2022-11-20T12:34:12;15.90;;;11.40;;
8592;SDS011;4334;49.982;8.398;2022-11-20T12:36:52;15.70;;;10.37;;
8592;SDS011;4334;49.982;8.398;2022-11-20T12:42:14;14.93;;;11.20;;
8592;SDS011;4334;49.982;8.398;2022-11-20T12:45:42;17.73;;;11.70;;
8592;SDS011;4334;49.982;8.398;2022-11-20T12:51:30;18.87;;;11.67;;
8592;SDS011;4334;49.982;8.398;2022-11-20T12:54:25;21.17;;;13.03;;
8592;SDS011;4334;49.982;8.398;2022-11-20T12:57:07;19.37;;;12.83;;
8592;SDS011;4334;49.982;8.398;2022-11-20T12:59:47;20.23;;;13.03;;
8592;SDS011;4334;49.982;8.398;2022-11-20T13:02:23;20.83;;;13.37;;
8592;SDS011;4334;49.982;8.398;2022-11-20T13:05:05;23.40;;;13.80;;
8592;SDS011;4334;49.982;8.398;2022-11-20T13:07:45;20.30;;;14.07;;
8592;SDS011;4334;49.982;8.398;2022-11-20T13:10:16;23.17;;;13.87;;
8592;SDS011;4334;49.982;8.398;2022-11-20T13:12:49;22.97;;;13.73;;
8592;SDS011;4334;49.982;8.398;2022-11-20T13:15:24;21.17;;;14.03;;
8592;SDS011;4334;49.982;8.398;2022-11-20T13:18:00;23.03;;;13.17;;
8592;SDS011;4334;49.982;8.398;2022-11-20T13:20:28;20.73;;;13.07;;
8592;SDS011;4334;49.982;8.398;2022-11-20T13:22:57;21.57;;;13.63;;
8592;SDS011;4334;49.982;8.398;2022-11-20T13:25:26;21.20;;;13.27;;
8592;SDS011;4334;49.982;8.398;2022-11-20T13:27:55;22.67;;;13.00;;
8592;SDS011;4334;49.982;8.398;2022-11-20T13:30:24;21.10;;;13.37;;
8592;SDS011;4334;49.982;8.398;2022-11-20T13:32:53;19.23;;;12.17;;
8592;SDS011;4334;49.982;8.398;2022-11-20T13:35:28;22.83;;;13.53;;
8592;SDS011;4334;49.982;8.398;2022-11-20T13:38:01;20.93;;;12.73;;
8592;SDS011;4334;49.982;8.398;2022-11-20T13:40:31;20.00;;;13.27;;
8592;SDS011;4334;49.982;8.398;2022-11-20T13:43:04;22.43;;;13.77;;
8592;SDS011;4334;49.982;8.398;2022-11-20T13:45:40;20.80;;;12.90;;
8592;SDS011;4334;49.982;8.398;2022-11-20T13:48:17;21.23;;;12.47;;
8592;SDS011;4334;49.982;8.398;2022-11-20T13:50:50;21.23;;;12.63;;
8592;SDS011;4334;49.982;8.398;2022-11-20T13:53:33;19.50;;;11.97;;
8592;SDS011;4334;49.982;8.398;2022-11-20T13:56:32;20.67;;;12.90;;
8592;SDS011;4334;49.982;8.398;2022-11-20T13:59:07;20.27;;;12.83;;
8592;SDS011;4334;49.982;8.398;2022-11-20T14:01:41;24.90;;;13.87;;
8592;SDS011;4334;49.982;8.398;2022-11-20T14:04:12;23.10;;;13.70;;
8592;SDS011;4334;49.982;8.398;2022-11-20T14:06:44;21.90;;;13.73;;
8592;SDS011;4334;49.982;8.398;2022-11-20T14:09:13;21.40;;;13.13;;
8592;SDS011;4334;49.982;8.398;2022-11-20T14:11:52;20.93;;;13.00;;
8592;SDS011;4334;49.982;8.398;2022-11-20T14:14:19;22.70;;;13.57;;
8592;SDS011;4334;49.982;8.398;2022-11-20T14:16:48;23.77;;;13.93;;
8592;SDS011;4334;49.982;8.398;2022-11-20T14:19:24;23.40;;;13.30;;
8592;SDS011;4334;49.982;8.398;2022-11-20T14:24:44;21.87;;;13.27;;
8592;SDS011;4334;49.982;8.398;2022-11-20T14:27:13;21.13;;;12.80;;
8592;SDS011;4334;49.982;8.398;2022-11-20T14:29:42;22.20;;;13.43;;
8592;SDS011;4334;49.982;8.398;2022-11-20T14:32:11;25.57;;;14.10;;
8592;SDS011;4334;49.982;8.398;2022-11-20T14:34:42;26.80;;;14.33;;
8592;SDS011;4334;49.982;8.398;2022-11-20T14:37:12;25.77;;;14.00;;
8592;SDS011;4334;49.982;8.398;2022-11-20T14:39:47;21.53;;;13.50;;
8592;SDS011;4334;49.982;8.398;2022-11-20T14:42:19;22.63;;;14.00;;
8592;SDS011;4334;49.982;8.398;2022-11-20T14:44:48;23.87;;;14.30;;
8592;SDS011;4334;49.982;8.398;2022-11-20T14:47:17;26.63;;;14.60;;
8592;SDS011;4334;49.982;8.398;2022-11-20T14:49:47;26.10;;;14.93;;
8592;SDS011;4334;49.982;8.398;2022-11-20T14:52:15;28.07;;;15.77;;
8592;SDS011;4334;49.982;8.398;2022-11-20T14:54:43;28.83;;;15.93;;
8592;SDS011;4334;49.982;8.398;2022-11-20T14:57:23;27.93;;;16.17;;
8592;SDS011;4334;49.982;8.398;2022-11-20T14:59:51;28.20;;;16.30;;
8592;SDS011;4334;49.982;8.398;2022-11-20T15:02:29;30.00;;;16.30;;
8592;SDS011;4334;49.982;8.398;2022-11-20T15:04:58;33.10;;;17.43;;
8592;SDS011;4334;49.982;8.398;2022-11-20T15:07:28;31.63;;;16.87;;
8592;SDS011;4334;49.982;8.398;2022-11-20T15:10:03;35.17;;;17.53;;
8592;SDS011;4334;49.982;8.398;2022-11-20T15:12:34;31.60;;;17.17;;
8592;SDS011;4334;49.982;8.398;2022-11-20T15:15:03;32.83;;;17.80;;